ALA weather

Almaty Airport
Almaty, Almaty Region, Kazakhstan

Public forecast

Using degrees Celsius for public forecast. Weather courtesy of forecast.io.

METAR (pilot weather report)

Retrieved 2019/02/16 09:30 UTC (19 minutes ago):

UAAA 160930Z 03004MPS 9999 FEW100 SCT200 03/M02 Q1021 R05L/1///60 R05R/2///50 NOSIG

TAF (pilot weather forecast)

Retrieved 2019/02/16 06:18 UTC (4 hours ago):

TAF TAF UAAA 160500Z 1606/1706 34003MPS 0800 FZFG VV003 TX02/1608Z TNM01/1701Z TEMPO 1606/1608 0300 FZFG VV001 FM160900 04004MPS 2400 BR FU BKN011 BKN100 BECMG 1611/1612 16003MPS 1000 TEMPO 1612/1618 0300 FZFG FU VV002 TEMPO 1618/1706 0200 FZFG VV001